Time,TemperatureF,DewpointF,PressureIn,WindDirection,WindDirectionDegrees,WindSpeedMPH,WindSpeedGustMPH,Humidity,HourlyPrecipIn,Conditions,Clouds,dailyrainin,SolarRadiationWatts/m^2,SoftwareType,DateUTC
2013-06-19 00:01:00,52.0,43.0,-100.00,SW,220,2.0,6.0,71,0.00,,,0.00,0.000000,,2013-06-19 05:01:00,
2013-06-19 00:02:00,48.0,43.0,-100.00,South,181,0.0,3.0,82,0.00,,,0.00,0.000000,,2013-06-19 05:02:00,
2013-06-19 00:23:00,48.0,43.0,-100.00,South,181,0.0,3.0,82,0.00,,,0.00,0.000000,,2013-06-19 05:23:00,
2013-06-19 00:32:00,48.0,43.0,-100.00,South,181,0.0,3.0,82,0.00,,,0.00,0.000000,,2013-06-19 05:32:00,
2013-06-19 00:43:00,48.0,43.0,-100.00,South,181,0.0,3.0,82,0.00,,,0.00,0.000000,,2013-06-19 05:43:00,
2013-06-19 00:52:00,48.0,43.0,-100.00,South,181,0.0,3.0,82,0.00,,,0.00,0.000000,,2013-06-19 05:52:00,
2013-06-19 01:22:00,46.0,44.0,-100.00,ESE,115,0.0,3.0,92,0.00,,,0.00,0.000000,,2013-06-19 06:22:00,
2013-06-19 01:34:00,46.0,44.0,-100.00,ESE,115,0.0,3.0,92,0.00,,,0.00,0.000000,,2013-06-19 06:34:00,
2013-06-19 01:43:00,46.0,44.0,-100.00,ESE,115,0.0,3.0,92,0.00,,,0.00,0.000000,,2013-06-19 06:43:00,
2013-06-19 01:52:00,46.0,44.0,-100.00,ESE,115,0.0,3.0,92,0.00,,,0.00,0.000000,,2013-06-19 06:52:00,
2013-06-19 02:01:00,46.0,44.0,-100.00,ESE,115,0.0,3.0,92,0.00,,,0.00,0.000000,,2013-06-19 07:01:00,
2013-06-19 02:02:00,45.0,43.0,-100.00,SE,139,0.0,2.0,93,0.00,,,0.00,0.000000,,2013-06-19 07:02:00,
2013-06-19 02:22:00,45.0,43.0,-100.00,SE,139,0.0,2.0,93,0.00,,,0.00,0.000000,,2013-06-19 07:22:00,
2013-06-19 02:33:00,45.0,43.0,-100.00,SE,139,0.0,2.0,93,0.00,,,0.00,0.000000,,2013-06-19 07:33:00,
2013-06-19 02:43:00,45.0,43.0,-100.00,SE,139,0.0,2.0,93,0.00,,,0.00,0.000000,,2013-06-19 07:43:00,
2013-06-19 02:53:00,45.0,43.0,-100.00,SE,139,0.0,2.0,93,0.00,,,0.00,0.000000,,2013-06-19 07:53:00,
2013-06-19 03:02:00,44.0,43.0,-100.00,ESE,108,1.0,2.0,96,0.00,,,0.00,0.000000,,2013-06-19 08:02:00,
2013-06-19 03:22:00,44.0,43.0,-100.00,ESE,108,1.0,2.0,96,0.00,,,0.00,0.000000,,2013-06-19 08:22:00,
2013-06-19 03:34:00,44.0,43.0,-100.00,ESE,108,1.0,2.0,96,0.00,,,0.00,0.000000,,2013-06-19 08:34:00,
2013-06-19 03:43:00,44.0,43.0,-100.00,ESE,108,1.0,2.0,96,0.00,,,0.00,0.000000,,2013-06-19 08:43:00,
2013-06-19 03:54:00,44.0,43.0,-100.00,ESE,108,1.0,2.0,96,0.00,,,0.00,0.000000,,2013-06-19 08:54:00,
2013-06-19 04:02:00,43.0,42.0,-100.00,SW,231,1.0,2.0,97,0.00,,,0.00,0.000000,,2013-06-19 09:02:00,
2013-06-19 04:22:00,43.0,42.0,-100.00,SW,231,1.0,2.0,97,0.00,,,0.00,0.000000,,2013-06-19 09:22:00,
2013-06-19 04:34:00,43.0,42.0,-100.00,SW,231,1.0,2.0,97,0.00,,,0.00,0.000000,,2013-06-19 09:34:00,
2013-06-19 04:44:00,43.0,42.0,-100.00,SW,231,1.0,2.0,97,0.00,,,0.00,0.000000,,2013-06-19 09:44:00,
2013-06-19 04:53:00,43.0,42.0,-100.00,SW,231,1.0,2.0,97,0.00,,,0.00,0.000000,,2013-06-19 09:53:00,
2013-06-19 06:33:00,44.0,42.0,-100.00,South,185,0.0,2.0,93,-99.99,,,0.00,27.000000,,2013-06-19 11:33:00,
2013-06-19 06:43:00,44.0,42.0,-100.00,South,185,0.0,2.0,93,-99.99,,,0.00,27.000000,,2013-06-19 11:43:00,
2013-06-19 06:54:00,44.0,42.0,-100.00,South,185,0.0,2.0,93,-99.99,,,0.00,27.000000,,2013-06-19 11:54:00,
2013-06-19 07:01:00,44.0,42.0,-100.00,South,185,0.0,2.0,93,-99.99,,,0.00,27.000000,,2013-06-19 12:01:00,
2013-06-19 07:02:00,53.0,44.0,-100.00,SSW,194,1.0,5.0,72,0.00,,,0.00,236.000000,,2013-06-19 12:02:00,
2013-06-19 07:22:00,53.0,44.0,-100.00,SSW,194,1.0,5.0,72,0.00,,,0.00,236.000000,,2013-06-19 12:22:00,
2013-06-19 07:34:00,53.0,44.0,-100.00,SSW,194,1.0,5.0,72,0.00,,,0.00,236.000000,,2013-06-19 12:34:00,
2013-06-19 07:44:00,53.0,44.0,-100.00,SSW,194,1.0,5.0,72,0.00,,,0.00,236.000000,,2013-06-19 12:44:00,
2013-06-19 07:53:00,53.0,44.0,-100.00,SSW,194,1.0,5.0,72,0.00,,,0.00,236.000000,,2013-06-19 12:53:00,
2013-06-19 08:02:00,60.0,47.0,-100.00,SW,236,3.0,6.0,62,0.00,,,0.00,411.000000,,2013-06-19 13:02:00,
2013-06-19 08:22:00,60.0,47.0,-100.00,SW,236,3.0,6.0,62,0.00,,,0.00,411.000000,,2013-06-19 13:22:00,
2013-06-19 08:33:00,60.0,47.0,-100.00,SW,236,3.0,6.0,62,0.00,,,0.00,411.000000,,2013-06-19 13:33:00,
2013-06-19 08:43:00,60.0,47.0,-100.00,SW,236,3.0,6.0,62,0.00,,,0.00,411.000000,,2013-06-19 13:43:00,
2013-06-19 08:54:00,60.0,47.0,-100.00,SW,236,3.0,6.0,62,0.00,,,0.00,411.000000,,2013-06-19 13:54:00,
2013-06-19 09:22:00,64.0,43.0,-100.00,SW,224,4.0,9.0,46,0.00,,,0.00,588.000000,,2013-06-19 14:22:00,
2013-06-19 09:34:00,64.0,43.0,-100.00,SW,224,4.0,9.0,46,0.00,,,0.00,588.000000,,2013-06-19 14:34:00,
2013-06-19 09:44:00,64.0,43.0,-100.00,SW,224,4.0,9.0,46,0.00,,,0.00,588.000000,,2013-06-19 14:44:00,
2013-06-19 09:53:00,64.0,43.0,-100.00,SW,224,4.0,9.0,46,0.00,,,0.00,588.000000,,2013-06-19 14:53:00,
2013-06-19 10:01:00,64.0,43.0,-100.00,SW,224,4.0,9.0,46,0.00,,,0.00,588.000000,,2013-06-19 15:01:00,
2013-06-19 10:22:00,68.0,44.0,-100.00,WSW,239,4.0,10.0,42,0.00,,,0.00,724.000000,,2013-06-19 15:22:00,
2013-06-19 10:33:00,68.0,44.0,-100.00,WSW,239,4.0,10.0,42,0.00,,,0.00,724.000000,,2013-06-19 15:33:00,
2013-06-19 10:43:00,68.0,44.0,-100.00,WSW,239,4.0,10.0,42,0.00,,,0.00,724.000000,,2013-06-19 15:43:00,
2013-06-19 10:53:00,68.0,44.0,-100.00,WSW,239,4.0,10.0,42,0.00,,,0.00,724.000000,,2013-06-19 15:53:00,
2013-06-19 11:01:00,68.0,44.0,-100.00,WSW,239,4.0,10.0,42,0.00,,,0.00,724.000000,,2013-06-19 16:01:00,
2013-06-19 11:02:00,70.0,45.0,-100.00,SW,233,6.0,13.0,40,0.00,,,0.00,741.000000,,2013-06-19 16:02:00,
2013-06-19 11:22:00,70.0,45.0,-100.00,SW,233,6.0,13.0,40,0.00,,,0.00,741.000000,,2013-06-19 16:22:00,
2013-06-19 11:34:00,70.0,45.0,-100.00,SW,233,6.0,13.0,40,0.00,,,0.00,741.000000,,2013-06-19 16:34:00,
2013-06-19 11:43:00,70.0,45.0,-100.00,SW,233,6.0,13.0,40,0.00,,,0.00,741.000000,,2013-06-19 16:43:00,
2013-06-19 11:53:00,70.0,45.0,-100.00,SW,233,6.0,13.0,40,0.00,,,0.00,741.000000,,2013-06-19 16:53:00,
2013-06-19 12:22:00,69.0,46.0,-100.00,WSW,247,6.0,11.0,44,0.00,,,0.00,524.000000,,2013-06-19 17:22:00,
2013-06-19 12:34:00,69.0,46.0,-100.00,WSW,247,6.0,11.0,44,0.00,,,0.00,524.000000,,2013-06-19 17:34:00,
2013-06-19 12:43:00,69.0,46.0,-100.00,WSW,247,6.0,11.0,44,0.00,,,0.00,524.000000,,2013-06-19 17:43:00,
2013-06-19 12:53:00,69.0,46.0,-100.00,WSW,247,6.0,11.0,44,0.00,,,0.00,524.000000,,2013-06-19 17:53:00,
2013-06-19 13:01:00,69.0,46.0,-100.00,WSW,247,6.0,11.0,44,0.00,,,0.00,524.000000,,2013-06-19 18:01:00,
2013-06-19 13:24:00,73.0,49.0,-100.00,West,259,6.0,13.0,43,0.00,,,0.00,553.000000,,2013-06-19 18:24:00,
2013-06-19 13:33:00,73.0,49.0,-100.00,West,259,6.0,13.0,43,0.00,,,0.00,553.000000,,2013-06-19 18:33:00,
2013-06-19 13:44:00,73.0,49.0,-100.00,West,259,6.0,13.0,43,0.00,,,0.00,553.000000,,2013-06-19 18:44:00,
2013-06-19 13:53:00,73.0,49.0,-100.00,West,259,6.0,13.0,43,0.00,,,0.00,553.000000,,2013-06-19 18:53:00,
2013-06-19 14:01:00,73.0,49.0,-100.00,West,259,6.0,13.0,43,0.00,,,0.00,553.000000,,2013-06-19 19:01:00,
2013-06-19 14:02:00,72.0,48.0,-100.00,WSW,239,5.0,15.0,42,0.00,,,0.00,582.000000,,2013-06-19 19:02:00,
2013-06-19 14:22:00,72.0,48.0,-100.00,WSW,239,5.0,15.0,42,0.00,,,0.00,582.000000,,2013-06-19 19:22:00,
2013-06-19 14:32:00,72.0,48.0,-100.00,WSW,239,5.0,15.0,42,0.00,,,0.00,582.000000,,2013-06-19 19:32:00,
2013-06-19 14:43:00,72.0,48.0,-100.00,WSW,239,5.0,15.0,42,0.00,,,0.00,582.000000,,2013-06-19 19:43:00,
2013-06-19 14:53:00,72.0,48.0,-100.00,WSW,239,5.0,15.0,42,0.00,,,0.00,582.000000,,2013-06-19 19:53:00,
2013-06-19 15:02:00,75.0,49.0,-100.00,WSW,243,5.0,13.0,40,0.00,,,-99.99,470.000000,,2013-06-19 20:02:00,
2013-06-19 15:22:00,75.0,49.0,-100.00,WSW,243,5.0,13.0,40,0.00,,,-99.99,470.000000,,2013-06-19 20:22:00,
2013-06-19 15:33:00,75.0,49.0,-100.00,WSW,243,5.0,13.0,40,0.00,,,-99.99,470.000000,,2013-06-19 20:33:00,
2013-06-19 15:43:00,75.0,49.0,-100.00,WSW,243,5.0,13.0,40,0.00,,,-99.99,470.000000,,2013-06-19 20:43:00,
2013-06-19 15:52:00,75.0,49.0,-100.00,WSW,243,5.0,13.0,40,0.00,,,-99.99,470.000000,,2013-06-19 20:52:00,
2013-06-19 16:22:00,76.0,49.0,-100.00,SW,235,4.0,12.0,38,0.00,,,0.00,580.000000,,2013-06-19 21:22:00,
2013-06-19 16:33:00,76.0,49.0,-100.00,SW,235,4.0,12.0,38,0.00,,,0.00,580.000000,,2013-06-19 21:33:00,
2013-06-19 16:44:00,76.0,49.0,-100.00,SW,235,4.0,12.0,38,0.00,,,0.00,580.000000,,2013-06-19 21:44:00,
2013-06-19 16:52:00,76.0,49.0,-100.00,SW,235,4.0,12.0,38,0.00,,,0.00,580.000000,,2013-06-19 21:52:00,
2013-06-19 17:01:00,76.0,49.0,-100.00,SW,235,4.0,12.0,38,0.00,,,0.00,580.000000,,2013-06-19 22:01:00,
2013-06-19 18:23:00,74.0,51.0,-100.00,SW,229,6.0,11.0,44,-99.99,,,0.00,418.000000,,2013-06-19 23:23:00,
2013-06-19 18:34:00,74.0,51.0,-100.00,SW,229,6.0,11.0,44,-99.99,,,0.00,418.000000,,2013-06-19 23:34:00,
2013-06-19 18:43:00,74.0,51.0,-100.00,SW,229,6.0,11.0,44,-99.99,,,0.00,418.000000,,2013-06-19 23:43:00,
2013-06-19 18:52:00,74.0,51.0,-100.00,SW,229,6.0,11.0,44,-99.99,,,0.00,418.000000,,2013-06-19 23:52:00,
2013-06-19 19:01:00,74.0,51.0,-100.00,SW,229,6.0,11.0,44,-99.99,,,0.00,418.000000,,2013-06-20 00:01:00,
2013-06-19 19:02:00,74.0,52.0,-100.00,WSW,237,5.0,10.0,46,0.00,,,0.00,273.000000,,2013-06-20 00:02:00,
2013-06-19 19:22:00,74.0,52.0,-100.00,WSW,237,5.0,10.0,46,0.00,,,0.00,273.000000,,2013-06-20 00:22:00,
2013-06-19 19:34:00,74.0,52.0,-100.00,WSW,237,5.0,10.0,46,0.00,,,0.00,273.000000,,2013-06-20 00:34:00,
2013-06-19 19:44:00,74.0,52.0,-100.00,WSW,237,5.0,10.0,46,0.00,,,0.00,273.000000,,2013-06-20 00:44:00,
2013-06-19 19:52:00,74.0,52.0,-100.00,WSW,237,5.0,10.0,46,0.00,,,0.00,273.000000,,2013-06-20 00:52:00,
2013-06-19 20:02:00,69.0,53.0,-100.00,WSW,237,5.0,9.0,56,0.00,,,0.00,133.000000,,2013-06-20 01:02:00,
2013-06-19 20:22:00,69.0,53.0,-100.00,WSW,237,5.0,9.0,56,0.00,,,0.00,133.000000,,2013-06-20 01:22:00,
2013-06-19 20:34:00,69.0,53.0,-100.00,WSW,237,5.0,9.0,56,0.00,,,0.00,133.000000,,2013-06-20 01:34:00,
2013-06-19 20:44:00,69.0,53.0,-100.00,WSW,237,5.0,9.0,56,0.00,,,0.00,133.000000,,2013-06-20 01:44:00,
2013-06-19 20:52:00,69.0,53.0,-100.00,WSW,237,5.0,9.0,56,0.00,,,0.00,133.000000,,2013-06-20 01:52:00,
2013-06-19 21:02:00,62.0,53.0,-100.00,South,189,1.0,8.0,73,0.00,,,0.00,14.000000,,2013-06-20 02:02:00,
2013-06-19 21:24:00,62.0,53.0,-100.00,South,189,1.0,8.0,73,0.00,,,0.00,14.000000,,2013-06-20 02:24:00,
2013-06-19 21:34:00,62.0,53.0,-100.00,South,189,1.0,8.0,73,0.00,,,0.00,14.000000,,2013-06-20 02:34:00,
2013-06-19 21:43:00,62.0,53.0,-100.00,South,189,1.0,8.0,73,0.00,,,0.00,14.000000,,2013-06-20 02:43:00,
2013-06-19 21:52:00,62.0,53.0,-100.00,South,189,1.0,8.0,73,0.00,,,0.00,14.000000,,2013-06-20 02:52:00,
2013-06-19 22:02:00,59.0,54.0,-100.00,SSE,166,1.0,2.0,83,0.00,,,0.00,1.000000,,2013-06-20 03:02:00,
2013-06-19 22:22:00,59.0,54.0,-100.00,SSE,166,1.0,2.0,83,0.00,,,0.00,1.000000,,2013-06-20 03:22:00,
2013-06-19 22:33:00,59.0,54.0,-100.00,SSE,166,1.0,2.0,83,0.00,,,0.00,1.000000,,2013-06-20 03:33:00,
2013-06-19 22:43:00,59.0,54.0,-100.00,SSE,166,1.0,2.0,83,0.00,,,0.00,1.000000,,2013-06-20 03:43:00,
2013-06-19 22:54:00,59.0,54.0,-100.00,SSE,166,1.0,2.0,83,0.00,,,0.00,1.000000,,2013-06-20 03:54:00,
2013-06-19 23:02:00,58.0,54.0,-100.00,SW,217,2.0,5.0,86,0.00,,,0.00,0.000000,,2013-06-20 04:02:00,
2013-06-19 23:23:00,58.0,54.0,-100.00,SW,217,2.0,5.0,86,0.00,,,0.00,0.000000,,2013-06-20 04:23:00,
2013-06-19 23:34:00,58.0,54.0,-100.00,SW,217,2.0,5.0,86,0.00,,,0.00,0.000000,,2013-06-20 04:34:00,
2013-06-19 23:44:00,58.0,54.0,-100.00,SW,217,2.0,5.0,86,0.00,,,0.00,0.000000,,2013-06-20 04:44:00,
2013-06-19 23:54:00,58.0,54.0,-100.00,SW,217,2.0,5.0,86,0.00,,,0.00,0.000000,,2013-06-20 04:54:00,